sensor_id;sensor_type;location;lat;lon;timestamp;pressure;altitude;pressure_sealevel;temperature;humidity
66945;BME280;53853;51.982;5.928;2023-04-28T00:01:36;101333.84;;;11.05;49.16
66945;BME280;53853;51.982;5.928;2023-04-28T00:04:06;101320.94;;;11.01;48.57
66945;BME280;53853;51.982;5.928;2023-04-28T00:06:36;101304.34;;;10.97;49.36
66945;BME280;53853;51.982;5.928;2023-04-28T00:09:09;101313.09;;;10.99;48.21
66945;BME280;53853;51.982;5.928;2023-04-28T00:11:39;101309.97;;;10.94;48.96
66945;BME280;53853;51.982;5.928;2023-04-28T00:14:09;101311.13;;;10.92;49.24
66945;BME280;53853;51.982;5.928;2023-04-28T00:16:39;101304.09;;;10.91;49.60
66945;BME280;53853;51.982;5.928;2023-04-28T00:19:08;101312.78;;;10.93;49.64
66945;BME280;53853;51.982;5.928;2023-04-28T00:21:38;101309.13;;;10.94;50.12
66945;BME280;53853;51.982;5.928;2023-04-28T00:24:11;101302.13;;;10.93;50.22
66945;BME280;53853;51.982;5.928;2023-04-28T00:26:40;101295.53;;;10.87;49.63
66945;BME280;53853;51.982;5.928;2023-04-28T00:29:10;101286.41;;;10.80;49.39
66945;BME280;53853;51.982;5.928;2023-04-28T00:31:40;101299.44;;;10.73;49.17
66945;BME280;53853;51.982;5.928;2023-04-28T00:34:10;101294.94;;;10.74;50.02
66945;BME280;53853;51.982;5.928;2023-04-28T00:36:41;101294.81;;;10.75;50.36
66945;BME280;53853;51.982;5.928;2023-04-28T00:39:14;101284.59;;;10.71;49.62
66945;BME280;53853;51.982;5.928;2023-04-28T00:41:44;101280.38;;;10.68;50.15
66945;BME280;53853;51.982;5.928;2023-04-28T00:44:14;101273.22;;;10.68;50.57
66945;BME280;53853;51.982;5.928;2023-04-28T00:46:44;101273.50;;;10.65;50.20
66945;BME280;53853;51.982;5.928;2023-04-28T00:49:15;101279.69;;;10.66;50.57
66945;BME280;53853;51.982;5.928;2023-04-28T00:51:45;101266.22;;;10.67;51.18
66945;BME280;53853;51.982;5.928;2023-04-28T00:54:17;101259.06;;;10.68;51.29
66945;BME280;53853;51.982;5.928;2023-04-28T00:56:47;101254.69;;;10.67;51.42
66945;BME280;53853;51.982;5.928;2023-04-28T00:59:17;101245.72;;;10.68;51.42
66945;BME280;53853;51.982;5.928;2023-04-28T01:01:47;101236.63;;;10.71;51.67
66945;BME280;53853;51.982;5.928;2023-04-28T01:04:20;101232.53;;;10.66;50.27
66945;BME280;53853;51.982;5.928;2023-04-28T01:06:51;101238.69;;;10.67;51.03
66945;BME280;53853;51.982;5.928;2023-04-28T01:09:24;101233.22;;;10.68;50.48
66945;BME280;53853;51.982;5.928;2023-04-28T01:11:54;101231.13;;;10.62;49.94
66945;BME280;53853;51.982;5.928;2023-04-28T01:14:36;101224.00;;;10.63;51.40
66945;BME280;53853;51.982;5.928;2023-04-28T01:17:07;101222.84;;;10.65;51.46
66945;BME280;53853;51.982;5.928;2023-04-28T01:19:37;101233.50;;;10.65;51.93
66945;BME280;53853;51.982;5.928;2023-04-28T01:22:07;101238.44;;;10.60;51.30
66945;BME280;53853;51.982;5.928;2023-04-28T01:24:43;101230.44;;;10.60;52.70
66945;BME280;53853;51.982;5.928;2023-04-28T01:27:14;101232.41;;;10.58;52.67
66945;BME280;53853;51.982;5.928;2023-04-28T01:29:44;101236.19;;;10.56;53.54
66945;BME280;53853;51.982;5.928;2023-04-28T01:32:16;101232.13;;;10.51;54.24
66945;BME280;53853;51.982;5.928;2023-04-28T01:34:49;101231.81;;;10.45;55.32
66945;BME280;53853;51.982;5.928;2023-04-28T01:37:22;101233.38;;;10.38;54.91
66945;BME280;53853;51.982;5.928;2023-04-28T01:39:54;101229.16;;;10.35;56.96
66945;BME280;53853;51.982;5.928;2023-04-28T01:42:25;101233.78;;;10.33;56.75
66945;BME280;53853;51.982;5.928;2023-04-28T01:44:55;101222.41;;;10.31;57.11
66945;BME280;53853;51.982;5.928;2023-04-28T01:47:24;101215.53;;;10.28;57.16
66945;BME280;53853;51.982;5.928;2023-04-28T01:49:54;101216.50;;;10.27;57.70
66945;BME280;53853;51.982;5.928;2023-04-28T01:52:24;101211.16;;;10.27;57.94
66945;BME280;53853;51.982;5.928;2023-04-28T01:54:57;101220.44;;;10.23;57.06
66945;BME280;53853;51.982;5.928;2023-04-28T01:57:27;101223.22;;;10.22;56.89
66945;BME280;53853;51.982;5.928;2023-04-28T01:59:57;101218.88;;;10.21;57.51
66945;BME280;53853;51.982;5.928;2023-04-28T02:02:28;101209.19;;;10.20;58.43
66945;BME280;53853;51.982;5.928;2023-04-28T02:04:58;101207.94;;;10.24;58.03
66945;BME280;53853;51.982;5.928;2023-04-28T02:07:28;101206.38;;;10.21;57.09
66945;BME280;53853;51.982;5.928;2023-04-28T02:10:00;101200.22;;;10.21;58.44
66945;BME280;53853;51.982;5.928;2023-04-28T02:12:30;101192.38;;;10.19;57.99
66945;BME280;53853;51.982;5.928;2023-04-28T02:15:00;101192.38;;;10.19;57.95
66945;BME280;53853;51.982;5.928;2023-04-28T02:17:30;101198.41;;;10.21;58.02
66945;BME280;53853;51.982;5.928;2023-04-28T02:20:00;101193.78;;;10.23;58.57
66945;BME280;53853;51.982;5.928;2023-04-28T02:22:30;101184.25;;;10.21;57.07
66945;BME280;53853;51.982;5.928;2023-04-28T02:25:04;101187.19;;;10.18;57.37
66945;BME280;53853;51.982;5.928;2023-04-28T02:27:37;101187.03;;;10.19;57.45
66945;BME280;53853;51.982;5.928;2023-04-28T02:30:08;101181.44;;;10.12;56.65
66945;BME280;53853;51.982;5.928;2023-04-28T02:32:38;101183.00;;;10.15;57.53
66945;BME280;53853;51.982;5.928;2023-04-28T02:35:08;101174.00;;;10.16;57.98
66945;BME280;53853;51.982;5.928;2023-04-28T02:37:38;101173.03;;;10.17;58.02
66945;BME280;53853;51.982;5.928;2023-04-28T02:40:11;101164.91;;;10.19;57.57
66945;BME280;53853;51.982;5.928;2023-04-28T02:42:41;101169.50;;;10.16;57.77
66945;BME280;53853;51.982;5.928;2023-04-28T02:45:11;101163.06;;;10.19;58.29
66945;BME280;53853;51.982;5.928;2023-04-28T02:47:41;101161.25;;;10.20;57.75
66945;BME280;53853;51.982;5.928;2023-04-28T02:50:11;101158.72;;;10.18;57.47
66945;BME280;53853;51.982;5.928;2023-04-28T02:52:41;101150.88;;;10.16;57.49
66945;BME280;53853;51.982;5.928;2023-04-28T02:55:14;101150.03;;;10.16;57.53
66945;BME280;53853;51.982;5.928;2023-04-28T02:57:50;101149.22;;;10.15;57.46
66945;BME280;53853;51.982;5.928;2023-04-28T03:00:20;101142.88;;;10.16;57.27
66945;BME280;53853;51.982;5.928;2023-04-28T03:02:51;101130.44;;;10.17;56.80
66945;BME280;53853;51.982;5.928;2023-04-28T03:05:21;101123.41;;;10.16;55.96
66945;BME280;53853;51.982;5.928;2023-04-28T03:07:51;101112.19;;;10.12;55.85
66945;BME280;53853;51.982;5.928;2023-04-28T03:10:23;101114.31;;;10.09;56.87
66945;BME280;53853;51.982;5.928;2023-04-28T03:12:53;101116.09;;;10.08;56.53
66945;BME280;53853;51.982;5.928;2023-04-28T03:15:23;101111.38;;;10.12;57.13
66945;BME280;53853;51.982;5.928;2023-04-28T03:17:53;101114.44;;;10.07;55.91
66945;BME280;53853;51.982;5.928;2023-04-28T03:20:24;101106.47;;;10.07;57.14
66945;BME280;53853;51.982;5.928;2023-04-28T03:22:54;101102.78;;;10.08;56.80
66945;BME280;53853;51.982;5.928;2023-04-28T03:25:26;101094.53;;;10.11;57.12
66945;BME280;53853;51.982;5.928;2023-04-28T03:27:56;101094.81;;;10.08;56.56
66945;BME280;53853;51.982;5.928;2023-04-28T03:30:26;101093.97;;;10.08;56.28
66945;BME280;53853;51.982;5.928;2023-04-28T03:32:57;101091.44;;;10.06;56.54
66945;BME280;53853;51.982;5.928;2023-04-28T03:35:27;101087.53;;;10.10;56.47
66945;BME280;53853;51.982;5.928;2023-04-28T03:37:57;101085.56;;;10.12;56.99
66945;BME280;53853;51.982;5.928;2023-04-28T03:43:38;101090.63;;;10.15;57.16
66945;BME280;53853;51.982;5.928;2023-04-28T03:46:17;101083.59;;;10.14;56.88
66945;BME280;53853;51.982;5.928;2023-04-28T03:48:47;101088.94;;;10.14;57.33
66945;BME280;53853;51.982;5.928;2023-04-28T03:51:19;101094.66;;;10.10;56.66
66945;BME280;53853;51.982;5.928;2023-04-28T03:53:49;101087.53;;;10.10;57.38
66945;BME280;53853;51.982;5.928;2023-04-28T03:56:21;101087.13;;;10.15;57.72
66945;BME280;53853;51.982;5.928;2023-04-28T03:58:51;101083.31;;;10.18;58.26
66945;BME280;53853;51.982;5.928;2023-04-28T04:01:22;101078.00;;;10.18;58.07
66945;BME280;53853;51.982;5.928;2023-04-28T04:03:52;101067.63;;;10.14;57.87
66945;BME280;53853;51.982;5.928;2023-04-28T04:06:23;101075.47;;;10.16;57.56
66945;BME280;53853;51.982;5.928;2023-04-28T04:08:59;101074.63;;;10.15;58.03
66945;BME280;53853;51.982;5.928;2023-04-28T04:11:34;101075.31;;;10.18;58.16
66945;BME280;53853;51.982;5.928;2023-04-28T04:14:07;101073.34;;;10.20;58.57
66945;BME280;53853;51.982;5.928;2023-04-28T04:16:49;101060.31;;;10.16;58.20
66945;BME280;53853;51.982;5.928;2023-04-28T04:19:32;101061.72;;;10.21;58.66
66945;BME280;53853;51.982;5.928;2023-04-28T04:22:03;101069.03;;;10.19;58.49
66945;BME280;53853;51.982;5.928;2023-04-28T04:24:33;101062.56;;;10.21;58.99
66945;BME280;53853;51.982;5.928;2023-04-28T04:27:06;101054.44;;;10.23;58.73
66945;BME280;53853;51.982;5.928;2023-04-28T04:29:41;101056.25;;;10.22;59.08
66945;BME280;53853;51.982;5.928;2023-04-28T04:32:15;101058.53;;;10.17;58.01
66945;BME280;53853;51.982;5.928;2023-04-28T04:34:44;101049.13;;;10.13;58.79
66945;BME280;53853;51.982;5.928;2023-04-28T04:37:14;101047.19;;;10.15;59.20
66945;BME280;53853;51.982;5.928;2023-04-28T04:39:58;101045.19;;;10.17;59.46
66945;BME280;53853;51.982;5.928;2023-04-28T04:42:36;101036.22;;;10.18;59.62
66945;BME280;53853;51.982;5.928;2023-04-28T04:45:08;101031.59;;;10.20;59.45
66945;BME280;53853;51.982;5.928;2023-04-28T04:47:38;101031.47;;;10.22;59.74
66945;BME280;53853;51.982;5.928;2023-04-28T04:50:09;101029.47;;;10.24;59.84
66945;BME280;53853;51.982;5.928;2023-04-28T04:52:40;101030.88;;;10.28;60.40
66945;BME280;53853;51.982;5.928;2023-04-28T04:55:10;101027.50;;;10.26;60.17
66945;BME280;53853;51.982;5.928;2023-04-28T04:57:44;101026.41;;;10.28;60.23
66945;BME280;53853;51.982;5.928;2023-04-28T05:00:43;101030.59;;;10.31;60.36
66945;BME280;53853;51.982;5.928;2023-04-28T05:03:13;101024.69;;;10.27;59.67
66945;BME280;53853;51.982;5.928;2023-04-28T05:05:44;101031.59;;;10.30;60.46
66945;BME280;53853;51.982;5.928;2023-04-28T05:08:26;101019.22;;;10.29;60.09
66945;BME280;53853;51.982;5.928;2023-04-28T05:10:57;101012.94;;;10.30;60.32
66945;BME280;53853;51.982;5.928;2023-04-28T05:13:30;101010.13;;;10.31;60.97
66945;BME280;53853;51.982;5.928;2023-04-28T05:16:03;101006.63;;;10.31;61.17
66945;BME280;53853;51.982;5.928;2023-04-28T05:18:39;100997.25;;;10.27;61.05
66945;BME280;53853;51.982;5.928;2023-04-28T05:21:09;100996.94;;;10.30;61.74
66945;BME280;53853;51.982;5.928;2023-04-28T05:23:40;100993.31;;;10.31;61.59
66945;BME280;53853;51.982;5.928;2023-04-28T05:26:10;101002.03;;;10.33;61.79
66945;BME280;53853;51.982;5.928;2023-04-28T05:28:42;100997.94;;;10.39;62.14
66945;BME280;53853;51.982;5.928;2023-04-28T05:31:12;101002.69;;;10.45;62.28
66945;BME280;53853;51.982;5.928;2023-04-28T05:33:42;100993.13;;;10.52;62.58
66945;BME280;53853;51.982;5.928;2023-04-28T05:36:12;100991.00;;;10.56;62.56
66945;BME280;53853;51.982;5.928;2023-04-28T05:38:43;100997.03;;;10.58;62.90
66945;BME280;53853;51.982;5.928;2023-04-28T05:41:13;101003.91;;;10.60;63.04
66945;BME280;53853;51.982;5.928;2023-04-28T05:43:45;100993.78;;;10.64;62.95
66945;BME280;53853;51.982;5.928;2023-04-28T05:46:17;100994.50;;;10.66;63.22
66945;BME280;53853;51.982;5.928;2023-04-28T05:48:50;100987.19;;;10.68;63.44
66945;BME280;53853;51.982;5.928;2023-04-28T05:51:23;100988.41;;;10.74;64.11
66945;BME280;53853;51.982;5.928;2023-04-28T05:53:53;100990.47;;;10.80;64.07
66945;BME280;53853;51.982;5.928;2023-04-28T05:56:25;100993.72;;;10.83;64.02
66945;BME280;53853;51.982;5.928;2023-04-28T05:58:59;100997.88;;;10.86;64.05
66945;BME280;53853;51.982;5.928;2023-04-28T06:01:30;100998.03;;;10.84;64.68
66945;BME280;53853;51.982;5.928;2023-04-28T06:04:21;100994.25;;;10.87;64.85
66945;BME280;53853;51.982;5.928;2023-04-28T06:07:09;100995.78;;;10.90;65.25
66945;BME280;53853;51.982;5.928;2023-04-28T06:09:54;100999.38;;;10.98;65.21
66945;BME280;53853;51.982;5.928;2023-04-28T06:16:16;101024.19;;;11.09;66.25
66945;BME280;53853;51.982;5.928;2023-04-28T06:19:19;101022.34;;;11.09;67.35
66945;BME280;53853;51.982;5.928;2023-04-28T06:21:51;101013.66;;;11.07;68.11
66945;BME280;53853;51.982;5.928;2023-04-28T06:24:42;101006.25;;;11.01;69.40
66945;BME280;53853;51.982;5.928;2023-04-28T06:27:53;101002.47;;;10.94;70.99
66945;BME280;53853;51.982;5.928;2023-04-28T06:30:33;100992.25;;;10.89;72.93
66945;BME280;53853;51.982;5.928;2023-04-28T06:33:19;100988.75;;;10.88;72.78
66945;BME280;53853;51.982;5.928;2023-04-28T06:35:49;100985.13;;;10.90;73.57
66945;BME280;53853;51.982;5.928;2023-04-28T06:38:19;100990.84;;;10.95;73.85
66945;BME280;53853;51.982;5.928;2023-04-28T06:40:49;100992.63;;;11.04;74.70
66945;BME280;53853;51.982;5.928;2023-04-28T06:43:22;100984.31;;;11.07;74.79
66945;BME280;53853;51.982;5.928;2023-04-28T06:46:08;100982.63;;;11.06;75.61
66945;BME280;53853;51.982;5.928;2023-04-28T06:48:41;100983.69;;;11.13;75.54
66945;BME280;53853;51.982;5.928;2023-04-28T06:51:11;100986.06;;;11.16;75.81
66945;BME280;53853;51.982;5.928;2023-04-28T06:53:41;100997.31;;;11.20;75.71
66945;BME280;53853;51.982;5.928;2023-04-28T06:56:12;100981.69;;;11.25;75.67
66945;BME280;53853;51.982;5.928;2023-04-28T06:58:42;100986.19;;;11.24;76.75
66945;BME280;53853;51.982;5.928;2023-04-28T07:01:13;100976.94;;;11.37;76.81
66945;BME280;53853;51.982;5.928;2023-04-28T07:03:45;100975.44;;;11.52;76.99
66945;BME280;53853;51.982;5.928;2023-04-28T07:06:15;100974.22;;;11.65;76.83
66945;BME280;53853;51.982;5.928;2023-04-28T07:08:46;100978.84;;;11.81;76.52
66945;BME280;53853;51.982;5.928;2023-04-28T07:11:15;100978.09;;;11.88;76.90
66945;BME280;53853;51.982;5.928;2023-04-28T07:13:45;100976.16;;;11.99;76.48
66945;BME280;53853;51.982;5.928;2023-04-28T07:16:17;100982.47;;;12.16;76.26
66945;BME280;53853;51.982;5.928;2023-04-28T07:18:50;100976.88;;;12.27;76.07
66945;BME280;53853;51.982;5.928;2023-04-28T07:21:20;100980.13;;;12.39;75.96
66945;BME280;53853;51.982;5.928;2023-04-28T07:23:50;100975.97;;;12.44;75.66
66945;BME280;53853;51.982;5.928;2023-04-28T07:26:22;100982.22;;;12.53;75.78
66945;BME280;53853;51.982;5.928;2023-04-28T07:28:52;100976.53;;;12.56;75.17
66945;BME280;53853;51.982;5.928;2023-04-28T07:31:22;100968.84;;;12.53;74.86
66945;BME280;53853;51.982;5.928;2023-04-28T07:33:55;100976.88;;;12.53;74.86
66945;BME280;53853;51.982;5.928;2023-04-28T07:36:25;100970.66;;;12.53;74.93
66945;BME280;53853;51.982;5.928;2023-04-28T07:38:55;100968.38;;;12.58;75.20
66945;BME280;53853;51.982;5.928;2023-04-28T07:41:26;100961.53;;;12.63;75.04
66945;BME280;53853;51.982;5.928;2023-04-28T07:43:56;100960.69;;;12.63;74.87
66945;BME280;53853;51.982;5.928;2023-04-28T07:46:26;100971.59;;;12.69;75.37
66945;BME280;53853;51.982;5.928;2023-04-28T07:48:59;100976.13;;;12.77;75.45
66945;BME280;53853;51.982;5.928;2023-04-28T07:51:29;100966.28;;;12.86;75.16
66945;BME280;53853;51.982;5.928;2023-04-28T07:53:59;100966.19;;;12.96;75.28
66945;BME280;53853;51.982;5.928;2023-04-28T07:56:29;100968.00;;;13.03;75.39
66945;BME280;53853;51.982;5.928;2023-04-28T07:58:59;100955.34;;;13.14;75.13
66945;BME280;53853;51.982;5.928;2023-04-28T08:01:29;100961.84;;;13.11;74.19
66945;BME280;53853;51.982;5.928;2023-04-28T08:04:02;100962.19;;;13.08;74.23
66945;BME280;53853;51.982;5.928;2023-04-28T08:06:32;100957.34;;;13.12;74.47
66945;BME280;53853;51.982;5.928;2023-04-28T08:09:02;100960.06;;;13.20;74.46
66945;BME280;53853;51.982;5.928;2023-04-28T08:11:32;100953.34;;;13.24;74.31
66945;BME280;53853;51.982;5.928;2023-04-28T08:14:02;100959.88;;;13.21;73.54
66945;BME280;53853;51.982;5.928;2023-04-28T08:16:32;100952.03;;;13.20;73.79
66945;BME280;53853;51.982;5.928;2023-04-28T08:19:19;100952.53;;;13.23;74.33
66945;BME280;53853;51.982;5.928;2023-04-28T08:21:49;100950.84;;;13.22;74.11
66945;BME280;53853;51.982;5.928;2023-04-28T08:24:21;100950.00;;;13.22;74.29
66945;BME280;53853;51.982;5.928;2023-04-28T08:26:52;100946.22;;;13.33;75.00
66945;BME280;53853;51.982;5.928;2023-04-28T08:29:21;100947.75;;;13.44;74.79
66945;BME280;53853;51.982;5.928;2023-04-28T08:31:53;100941.38;;;13.53;74.65
66945;BME280;53853;51.982;5.928;2023-04-28T08:34:26;100945.75;;;13.70;74.44
66945;BME280;53853;51.982;5.928;2023-04-28T08:36:56;100955.25;;;13.81;74.19
66945;BME280;53853;51.982;5.928;2023-04-28T08:39:26;100959.94;;;13.95;74.34
66945;BME280;53853;51.982;5.928;2023-04-28T08:41:57;100959.44;;;14.00;73.53
66945;BME280;53853;51.982;5.928;2023-04-28T08:44:27;100950.38;;;14.09;73.36
66945;BME280;53853;51.982;5.928;2023-04-28T08:46:58;100951.91;;;14.04;72.70
66945;BME280;53853;51.982;5.928;2023-04-28T08:49:34;100954.56;;;13.95;73.04
66945;BME280;53853;51.982;5.928;2023-04-28T08:52:09;100952.75;;;13.96;73.33
66945;BME280;53853;51.982;5.928;2023-04-28T08:54:40;100960.09;;;14.10;73.72
66945;BME280;53853;51.982;5.928;2023-04-28T08:57:10;100948.84;;;14.23;73.56
66945;BME280;53853;51.982;5.928;2023-04-28T08:59:41;100954.00;;;14.33;73.16
66945;BME280;53853;51.982;5.928;2023-04-28T09:02:11;100959.00;;;14.44;73.20
66945;BME280;53853;51.982;5.928;2023-04-28T09:11:36;100944.91;;;14.50;72.41
66945;BME280;53853;51.982;5.928;2023-04-28T09:14:19;100949.28;;;14.52;72.72
66945;BME280;53853;51.982;5.928;2023-04-28T09:16:50;100949.56;;;14.57;72.81
66945;BME280;53853;51.982;5.928;2023-04-28T09:19:20;100948.41;;;14.59;72.44
66945;BME280;53853;51.982;5.928;2023-04-28T09:21:55;100942.91;;;14.61;72.65
66945;BME280;53853;51.982;5.928;2023-04-28T09:24:29;100942.72;;;14.62;73.16
66945;BME280;53853;51.982;5.928;2023-04-28T09:27:03;100942.50;;;14.72;73.50
66945;BME280;53853;51.982;5.928;2023-04-28T09:29:37;100944.50;;;14.78;73.59
66945;BME280;53853;51.982;5.928;2023-04-28T09:32:14;100936.94;;;14.82;73.47
66945;BME280;53853;51.982;5.928;2023-04-28T09:34:45;100932.53;;;14.89;73.89
66945;BME280;53853;51.982;5.928;2023-04-28T09:37:16;100938.88;;;14.96;73.67
66945;BME280;53853;51.982;5.928;2023-04-28T09:39:48;100936.31;;;15.03;73.82
66945;BME280;53853;51.982;5.928;2023-04-28T09:42:34;100915.81;;;15.10;73.52
66945;BME280;53853;51.982;5.928;2023-04-28T09:45:06;100927.31;;;15.19;73.64
66945;BME280;53853;51.982;5.928;2023-04-28T09:47:38;100922.75;;;15.28;72.25
66945;BME280;53853;51.982;5.928;2023-04-28T09:50:10;100919.69;;;15.31;71.76
66945;BME280;53853;51.982;5.928;2023-04-28T09:52:41;100923.84;;;15.33;72.32
66945;BME280;53853;51.982;5.928;2023-04-28T09:55:12;100928.88;;;15.36;72.45
66945;BME280;53853;51.982;5.928;2023-04-28T09:57:47;100923.50;;;15.36;72.48
66945;BME280;53853;51.982;5.928;2023-04-28T10:00:18;100924.19;;;15.38;72.64
66945;BME280;53853;51.982;5.928;2023-04-28T10:02:50;100924.19;;;15.38;72.55
66945;BME280;53853;51.982;5.928;2023-04-28T10:05:21;100929.19;;;15.42;73.15
66945;BME280;53853;51.982;5.928;2023-04-28T10:07:52;100926.97;;;15.45;72.42
66945;BME280;53853;51.982;5.928;2023-04-28T10:10:22;100927.78;;;15.46;72.10
66945;BME280;53853;51.982;5.928;2023-04-28T10:12:58;100917.22;;;15.44;72.46
66945;BME280;53853;51.982;5.928;2023-04-28T10:15:29;100915.38;;;15.45;72.56
66945;BME280;53853;51.982;5.928;2023-04-28T10:17:59;100917.22;;;15.44;72.68
66945;BME280;53853;51.982;5.928;2023-04-28T10:20:33;100922.44;;;15.46;73.22
66945;BME280;53853;51.982;5.928;2023-04-28T10:23:23;100915.88;;;15.48;73.20
66945;BME280;53853;51.982;5.928;2023-04-28T10:25:57;100914.00;;;15.49;73.34
66945;BME280;53853;51.982;5.928;2023-04-28T10:28:30;100906.97;;;15.48;73.37
66945;BME280;53853;51.982;5.928;2023-04-28T10:31:13;100909.66;;;15.48;73.37
66945;BME280;53853;51.982;5.928;2023-04-28T10:33:50;100918.56;;;15.48;73.84
66945;BME280;53853;51.982;5.928;2023-04-28T10:36:46;100912.16;;;15.49;74.35
66945;BME280;53853;51.982;5.928;2023-04-28T10:39:16;100911.31;;;15.49;74.73
66945;BME280;53853;51.982;5.928;2023-04-28T10:41:46;100910.97;;;15.52;74.89
66945;BME280;53853;51.982;5.928;2023-04-28T10:44:43;100912.28;;;15.56;75.16
66945;BME280;53853;51.982;5.928;2023-04-28T10:47:13;100906.75;;;15.57;75.33
66945;BME280;53853;51.982;5.928;2023-04-28T10:50:07;100907.19;;;15.61;75.48
66945;BME280;53853;51.982;5.928;2023-04-28T10:52:47;100911.94;;;15.59;75.62
66945;BME280;53853;51.982;5.928;2023-04-28T10:55:30;100912.09;;;15.57;76.05
66945;BME280;53853;51.982;5.928;2023-04-28T10:58:29;100915.63;;;15.58;76.11
66945;BME280;53853;51.982;5.928;2023-04-28T11:01:26;100911.94;;;15.59;76.47
66945;BME280;53853;51.982;5.928;2023-04-28T11:03:58;100909.06;;;15.61;76.71
66945;BME280;53853;51.982;5.928;2023-04-28T11:06:31;100909.53;;;15.64;76.83
66945;BME280;53853;51.982;5.928;2023-04-28T11:09:02;100912.03;;;15.66;76.80
66945;BME280;53853;51.982;5.928;2023-04-28T11:12:04;100910.00;;;15.68;76.88
66945;BME280;53853;51.982;5.928;2023-04-28T11:14:37;100905.25;;;15.70;76.84
66945;BME280;53853;51.982;5.928;2023-04-28T11:17:10;100907.94;;;15.70;77.21
66945;BME280;53853;51.982;5.928;2023-04-28T11:19:44;100916.19;;;15.68;77.52
66945;BME280;53853;51.982;5.928;2023-04-28T11:22:16;100903.25;;;15.72;77.92
66945;BME280;53853;51.982;5.928;2023-04-28T11:24:57;100899.69;;;15.80;78.13
66945;BME280;53853;51.982;5.928;2023-04-28T11:27:28;100901.97;;;15.83;77.91
66945;BME280;53853;51.982;5.928;2023-04-28T11:29:59;100903.84;;;15.82;78.26
66945;BME280;53853;51.982;5.928;2023-04-28T11:32:32;100914.22;;;15.85;78.47
66945;BME280;53853;51.982;5.928;2023-04-28T11:35:03;100902.94;;;15.90;78.36
66945;BME280;53853;51.982;5.928;2023-04-28T11:37:35;100914.50;;;15.90;78.31
66945;BME280;53853;51.982;5.928;2023-04-28T11:40:09;100908.13;;;15.91;78.19
66945;BME280;53853;51.982;5.928;2023-04-28T11:42:46;100908.66;;;15.87;78.14
66945;BME280;53853;51.982;5.928;2023-04-28T11:45:17;100919.13;;;15.82;78.06
66945;BME280;53853;51.982;5.928;2023-04-28T11:47:49;100916.81;;;15.79;78.15
66945;BME280;53853;51.982;5.928;2023-04-28T11:50:34;100918.88;;;15.68;78.20
66945;BME280;53853;51.982;5.928;2023-04-28T11:53:04;100915.25;;;15.61;78.36
66945;BME280;53853;51.982;5.928;2023-04-28T11:55:34;100911.34;;;15.64;78.62
66945;BME280;53853;51.982;5.928;2023-04-28T11:58:19;100910.16;;;15.66;78.49
66945;BME280;53853;51.982;5.928;2023-04-28T12:01:06;100910.09;;;15.74;78.74
66945;BME280;53853;51.982;5.928;2023-04-28T12:03:45;100919.22;;;15.88;79.08
66945;BME280;53853;51.982;5.928;2023-04-28T12:06:17;100912.31;;;15.94;79.33
66945;BME280;53853;51.982;5.928;2023-04-28T12:08:47;100903.59;;;16.07;79.53
66945;BME280;53853;51.982;5.928;2023-04-28T12:11:18;100908.06;;;16.15;78.66
66945;BME280;53853;51.982;5.928;2023-04-28T12:14:07;100905.19;;;16.16;78.20
66945;BME280;53853;51.982;5.928;2023-04-28T12:16:41;100910.44;;;16.09;77.35
66945;BME280;53853;51.982;5.928;2023-04-28T12:19:17;100902.47;;;16.01;77.09
66945;BME280;53853;51.982;5.928;2023-04-28T12:22:01;100908.75;;;15.93;77.53
66945;BME280;53853;51.982;5.928;2023-04-28T12:24:31;100905.25;;;15.93;77.98
66945;BME280;53853;51.982;5.928;2023-04-28T12:27:15;100898.38;;;15.90;78.05
66945;BME280;53853;51.982;5.928;2023-04-28T12:29:47;100922.09;;;15.87;78.03
66945;BME280;53853;51.982;5.928;2023-04-28T12:32:17;100911.44;;;15.79;78.26
66945;BME280;53853;51.982;5.928;2023-04-28T12:34:51;100920.50;;;15.78;78.58
66945;BME280;53853;51.982;5.928;2023-04-28T12:37:20;100915.66;;;15.73;78.68
66945;BME280;53853;51.982;5.928;2023-04-28T12:39:50;100910.00;;;15.68;78.97
66945;BME280;53853;51.982;5.928;2023-04-28T12:42:20;100915.38;;;15.68;79.19
66945;BME280;53853;51.982;5.928;2023-04-28T12:44:50;100917.22;;;15.67;79.04
66945;BME280;53853;51.982;5.928;2023-04-28T12:47:20;100916.38;;;15.67;78.63
66945;BME280;53853;51.982;5.928;2023-04-28T12:49:53;100922.41;;;15.69;79.26
66945;BME280;53853;51.982;5.928;2023-04-28T12:52:22;100912.78;;;15.74;79.46
66945;BME280;53853;51.982;5.928;2023-04-28T12:54:52;100915.81;;;15.80;79.53
66945;BME280;53853;51.982;5.928;2023-04-28T12:57:22;100920.50;;;15.78;78.61
66945;BME280;53853;51.982;5.928;2023-04-28T12:59:52;100926.03;;;15.76;79.25
66945;BME280;53853;51.982;5.928;2023-04-28T13:02:23;100919.69;;;15.77;79.39
66945;BME280;53853;51.982;5.928;2023-04-28T13:04:55;100922.84;;;15.81;79.39
66945;BME280;53853;51.982;5.928;2023-04-28T13:07:25;100924.50;;;15.82;79.19
66945;BME280;53853;51.982;5.928;2023-04-28T13:09:56;100924.88;;;15.79;78.19
66945;BME280;53853;51.982;5.928;2023-04-28T13:12:26;100920.00;;;15.74;78.43
66945;BME280;53853;51.982;5.928;2023-04-28T13:14:55;100920.38;;;15.71;78.51
66945;BME280;53853;51.982;5.928;2023-04-28T13:17:26;100925.38;;;15.74;78.64
66945;BME280;53853;51.982;5.928;2023-04-28T13:19:59;100923.34;;;15.76;78.66
66945;BME280;53853;51.982;5.928;2023-04-28T13:22:29;100918.69;;;15.78;79.05
66945;BME280;53853;51.982;5.928;2023-04-28T13:24:59;100912.53;;;15.84;79.41
66945;BME280;53853;51.982;5.928;2023-04-28T13:27:29;100902.38;;;15.94;79.72
66945;BME280;53853;51.982;5.928;2023-04-28T13:29:59;100904.25;;;16.09;79.74
66945;BME280;53853;51.982;5.928;2023-04-28T13:32:29;100895.81;;;16.12;78.73
66945;BME280;53853;51.982;5.928;2023-04-28T13:35:02;100903.78;;;16.20;78.70